FCPP

Pointe Noire Airport

Pointe Noire, Congo
METAR FCPP 210400Z 00000KT 4000 BR FEW010 OVC020 20/19 Q1014 NOSIG
Observed Flight Rules
Jul-21 @ 04:00 UTC (23 minutes ago) Instrument Flight Rules
Visibility Clouds Conditions
4,007 meters
  • Few at 1,000' AGL
  • Overcast at 2,000' AGL
  • Mist
Temperatures Readings
Current 20°C / 68°F
Dewpoint 19°C / 66°F
Humidity 94%
Altimeter 29.94" Hg
Pressure 1014 hPa
Elevation 17
METAR FCPP 210400Z 00000KT 4000 BR FEW010 OVC020 20/19 Q1014 NOSIG
Observed Flight Rules
Jul-21 @ 04:00 UTC
(23 minutes ago)
IFR
Clouds
  • Few at 1,000' AGL
  • Overcast at 2,000' AGL
Conditions
  • Mist
Temperature Dewpoint
20°C / 68°F 19°C / 66°F
Humidity Altimeter Pressure
94% 29.94" Hg 1014 hPa